sensor_id;sensor_type;location;lat;lon;timestamp;P1;durP1;ratioP1;P2;durP2;ratioP2
66966;SDS011;53900;51.468;-2.586;2023-05-23T02:22:38;9.63;;;2.10;;
66966;SDS011;53900;51.468;-2.586;2023-05-23T02:25:04;11.07;;;1.85;;
66966;SDS011;53900;51.468;-2.586;2023-05-23T02:27:29;8.57;;;2.13;;
66966;SDS011;53900;51.468;-2.586;2023-05-23T02:29:55;7.82;;;1.80;;
66966;SDS011;53900;51.468;-2.586;2023-05-23T02:32:20;10.70;;;3.00;;
66966;SDS011;53900;51.468;-2.586;2023-05-23T02:34:45;10.38;;;2.00;;
66966;SDS011;53900;51.468;-2.586;2023-05-23T02:37:14;9.13;;;2.10;;
66966;SDS011;53900;51.468;-2.586;2023-05-23T02:39:40;6.57;;;1.65;;
66966;SDS011;53900;51.468;-2.586;2023-05-23T02:42:05;13.38;;;2.38;;
66966;SDS011;53900;51.468;-2.586;2023-05-23T02:44:31;8.50;;;2.20;;
66966;SDS011;53900;51.468;-2.586;2023-05-23T02:46:56;10.32;;;1.70;;
66966;SDS011;53900;51.468;-2.586;2023-05-23T02:49:22;11.18;;;2.33;;
66966;SDS011;53900;51.468;-2.586;2023-05-23T02:51:47;11.40;;;2.20;;
66966;SDS011;53900;51.468;-2.586;2023-05-23T02:54:12;12.95;;;1.88;;
66966;SDS011;53900;51.468;-2.586;2023-05-23T02:56:37;11.30;;;2.38;;
66966;SDS011;53900;51.468;-2.586;2023-05-23T02:59:02;7.07;;;2.00;;
66966;SDS011;53900;51.468;-2.586;2023-05-23T03:01:28;10.27;;;1.92;;
66966;SDS011;53900;51.468;-2.586;2023-05-23T03:03:53;11.25;;;1.95;;
66966;SDS011;53900;51.468;-2.586;2023-05-23T03:06:18;8.70;;;2.35;;
66966;SDS011;53900;51.468;-2.586;2023-05-23T03:08:46;14.48;;;2.33;;
66966;SDS011;53900;51.468;-2.586;2023-05-23T03:11:11;10.63;;;2.20;;
66966;SDS011;53900;51.468;-2.586;2023-05-23T03:13:36;11.35;;;2.20;;
66966;SDS011;53900;51.468;-2.586;2023-05-23T03:18:27;9.63;;;1.90;;
66966;SDS011;53900;51.468;-2.586;2023-05-23T03:20:52;14.18;;;2.60;;
66966;SDS011;53900;51.468;-2.586;2023-05-23T03:23:17;9.88;;;2.17;;
66966;SDS011;53900;51.468;-2.586;2023-05-23T03:28:11;10.25;;;1.85;;
66966;SDS011;53900;51.468;-2.586;2023-05-23T03:30:36;10.18;;;2.83;;
66966;SDS011;53900;51.468;-2.586;2023-05-23T03:33:01;10.05;;;2.45;;
66966;SDS011;53900;51.468;-2.586;2023-05-23T03:35:27;13.60;;;2.38;;
66966;SDS011;53900;51.468;-2.586;2023-05-23T03:37:52;12.05;;;2.13;;
66966;SDS011;53900;51.468;-2.586;2023-05-23T03:40:17;8.30;;;2.03;;
66966;SDS011;53900;51.468;-2.586;2023-05-23T03:42:42;15.45;;;2.40;;
66966;SDS011;53900;51.468;-2.586;2023-05-23T03:45:08;12.30;;;2.65;;
66966;SDS011;53900;51.468;-2.586;2023-05-23T03:47:33;12.93;;;2.47;;
66966;SDS011;53900;51.468;-2.586;2023-05-23T03:49:58;9.20;;;1.83;;
66966;SDS011;53900;51.468;-2.586;2023-05-23T03:52:23;12.98;;;2.28;;
66966;SDS011;53900;51.468;-2.586;2023-05-23T03:54:48;4.65;;;1.77;;
66966;SDS011;53900;51.468;-2.586;2023-05-23T03:57:13;11.05;;;2.40;;
66966;SDS011;53900;51.468;-2.586;2023-05-23T03:59:39;11.93;;;2.25;;
66966;SDS011;53900;51.468;-2.586;2023-05-23T04:02:04;10.48;;;2.25;;
66966;SDS011;53900;51.468;-2.586;2023-05-23T04:04:29;10.35;;;2.50;;
66966;SDS011;53900;51.468;-2.586;2023-05-23T04:06:55;9.15;;;2.00;;
66966;SDS011;53900;51.468;-2.586;2023-05-23T04:09:20;13.55;;;2.40;;
66966;SDS011;53900;51.468;-2.586;2023-05-23T04:11:45;8.23;;;2.25;;
66966;SDS011;53900;51.468;-2.586;2023-05-23T04:14:11;13.85;;;3.45;;
66966;SDS011;53900;51.468;-2.586;2023-05-23T04:16:37;9.65;;;2.50;;
66966;SDS011;53900;51.468;-2.586;2023-05-23T04:19:05;9.13;;;2.72;;
66966;SDS011;53900;51.468;-2.586;2023-05-23T04:21:30;12.48;;;2.75;;
66966;SDS011;53900;51.468;-2.586;2023-05-23T04:23:56;8.43;;;2.20;;
66966;SDS011;53900;51.468;-2.586;2023-05-23T04:26:21;20.20;;;2.45;;
66966;SDS011;53900;51.468;-2.586;2023-05-23T04:28:46;14.13;;;2.50;;
66966;SDS011;53900;51.468;-2.586;2023-05-23T04:31:12;10.95;;;1.90;;
66966;SDS011;53900;51.468;-2.586;2023-05-23T04:33:38;14.50;;;2.60;;
66966;SDS011;53900;51.468;-2.586;2023-05-23T04:36:03;8.27;;;2.00;;
66966;SDS011;53900;51.468;-2.586;2023-05-23T04:38:28;16.52;;;2.33;;
66966;SDS011;53900;51.468;-2.586;2023-05-23T04:40:54;10.63;;;2.25;;
66966;SDS011;53900;51.468;-2.586;2023-05-23T04:43:19;12.93;;;2.22;;
66966;SDS011;53900;51.468;-2.586;2023-05-23T04:45:44;10.05;;;2.17;;
66966;SDS011;53900;51.468;-2.586;2023-05-23T04:48:10;9.23;;;2.63;;
66966;SDS011;53900;51.468;-2.586;2023-05-23T04:50:37;7.88;;;2.30;;
66966;SDS011;53900;51.468;-2.586;2023-05-23T04:53:04;13.38;;;2.30;;
66966;SDS011;53900;51.468;-2.586;2023-05-23T04:55:30;13.60;;;2.78;;
66966;SDS011;53900;51.468;-2.586;2023-05-23T04:57:56;18.08;;;2.95;;
66966;SDS011;53900;51.468;-2.586;2023-05-23T05:00:21;9.13;;;2.00;;
66966;SDS011;53900;51.468;-2.586;2023-05-23T05:02:46;9.93;;;2.38;;
66966;SDS011;53900;51.468;-2.586;2023-05-23T05:05:11;11.50;;;2.38;;
66966;SDS011;53900;51.468;-2.586;2023-05-23T05:07:36;10.48;;;2.22;;
66966;SDS011;53900;51.468;-2.586;2023-05-23T05:10:02;12.30;;;2.65;;
66966;SDS011;53900;51.468;-2.586;2023-05-23T05:12:27;9.00;;;3.00;;
66966;SDS011;53900;51.468;-2.586;2023-05-23T05:14:52;12.45;;;2.53;;
66966;SDS011;53900;51.468;-2.586;2023-05-23T05:17:18;12.23;;;2.50;;
66966;SDS011;53900;51.468;-2.586;2023-05-23T05:19:44;14.85;;;2.70;;
66966;SDS011;53900;51.468;-2.586;2023-05-23T05:22:09;8.95;;;2.13;;
66966;SDS011;53900;51.468;-2.586;2023-05-23T05:24:34;13.52;;;2.78;;
66966;SDS011;53900;51.468;-2.586;2023-05-23T05:26:59;11.77;;;2.45;;
66966;SDS011;53900;51.468;-2.586;2023-05-23T05:29:25;16.52;;;3.00;;
66966;SDS011;53900;51.468;-2.586;2023-05-23T05:31:50;17.10;;;2.63;;
66966;SDS011;53900;51.468;-2.586;2023-05-23T05:34:16;13.18;;;2.50;;
66966;SDS011;53900;51.468;-2.586;2023-05-23T05:36:41;9.68;;;2.30;;
66966;SDS011;53900;51.468;-2.586;2023-05-23T05:39:11;17.50;;;2.65;;
66966;SDS011;53900;51.468;-2.586;2023-05-23T05:41:37;14.90;;;2.53;;
66966;SDS011;53900;51.468;-2.586;2023-05-23T05:44:02;12.32;;;3.22;;
66966;SDS011;53900;51.468;-2.586;2023-05-23T05:46:27;13.10;;;2.55;;
66966;SDS011;53900;51.468;-2.586;2023-05-23T05:48:52;12.38;;;2.58;;
66966;SDS011;53900;51.468;-2.586;2023-05-23T05:51:18;13.45;;;2.60;;
66966;SDS011;53900;51.468;-2.586;2023-05-23T05:53:43;15.02;;;2.60;;
66966;SDS011;53900;51.468;-2.586;2023-05-23T05:56:08;19.33;;;3.20;;
66966;SDS011;53900;51.468;-2.586;2023-05-23T05:58:33;19.83;;;2.75;;
66966;SDS011;53900;51.468;-2.586;2023-05-23T06:00:58;13.73;;;2.35;;
66966;SDS011;53900;51.468;-2.586;2023-05-23T06:03:24;11.55;;;2.95;;
66966;SDS011;53900;51.468;-2.586;2023-05-23T06:05:49;13.50;;;3.40;;
66966;SDS011;53900;51.468;-2.586;2023-05-23T06:08:15;17.02;;;2.85;;
66966;SDS011;53900;51.468;-2.586;2023-05-23T06:10:40;19.70;;;2.90;;
66966;SDS011;53900;51.468;-2.586;2023-05-23T06:13:05;18.13;;;3.20;;
66966;SDS011;53900;51.468;-2.586;2023-05-23T06:15:30;19.02;;;2.67;;
66966;SDS011;53900;51.468;-2.586;2023-05-23T06:17:55;11.68;;;2.72;;
66966;SDS011;53900;51.468;-2.586;2023-05-23T06:20:21;21.05;;;2.88;;
66966;SDS011;53900;51.468;-2.586;2023-05-23T06:22:46;15.82;;;2.78;;
66966;SDS011;53900;51.468;-2.586;2023-05-23T06:25:11;12.98;;;2.80;;
66966;SDS011;53900;51.468;-2.586;2023-05-23T06:27:36;14.80;;;2.83;;
66966;SDS011;53900;51.468;-2.586;2023-05-23T06:30:04;11.60;;;2.80;;
66966;SDS011;53900;51.468;-2.586;2023-05-23T06:32:30;17.77;;;3.08;;
66966;SDS011;53900;51.468;-2.586;2023-05-23T06:34:55;13.18;;;2.65;;
66966;SDS011;53900;51.468;-2.586;2023-05-23T06:37:21;14.88;;;3.17;;
66966;SDS011;53900;51.468;-2.586;2023-05-23T06:39:46;17.55;;;3.08;;
66966;SDS011;53900;51.468;-2.586;2023-05-23T06:42:11;7.47;;;2.58;;
66966;SDS011;53900;51.468;-2.586;2023-05-23T06:44:36;16.40;;;2.75;;
66966;SDS011;53900;51.468;-2.586;2023-05-23T06:47:01;12.57;;;3.55;;
66966;SDS011;53900;51.468;-2.586;2023-05-23T06:49:26;11.85;;;3.38;;
66966;SDS011;53900;51.468;-2.586;2023-05-23T06:51:52;16.50;;;3.67;;
66966;SDS011;53900;51.468;-2.586;2023-05-23T06:54:17;14.80;;;3.92;;
66966;SDS011;53900;51.468;-2.586;2023-05-23T06:56:43;14.02;;;3.10;;
66966;SDS011;53900;51.468;-2.586;2023-05-23T06:59:08;19.98;;;3.05;;
66966;SDS011;53900;51.468;-2.586;2023-05-23T07:01:33;14.80;;;3.05;;
66966;SDS011;53900;51.468;-2.586;2023-05-23T07:03:58;14.10;;;3.63;;
66966;SDS011;53900;51.468;-2.586;2023-05-23T07:06:24;13.32;;;2.55;;
66966;SDS011;53900;51.468;-2.586;2023-05-23T07:08:51;13.43;;;2.88;;
66966;SDS011;53900;51.468;-2.586;2023-05-23T07:11:16;12.23;;;2.90;;
66966;SDS011;53900;51.468;-2.586;2023-05-23T07:13:41;14.65;;;3.03;;
66966;SDS011;53900;51.468;-2.586;2023-05-23T07:16:07;13.38;;;3.08;;
66966;SDS011;53900;51.468;-2.586;2023-05-23T07:18:32;9.27;;;2.78;;
66966;SDS011;53900;51.468;-2.586;2023-05-23T07:20:57;12.98;;;3.00;;
66966;SDS011;53900;51.468;-2.586;2023-05-23T07:23:24;15.02;;;2.72;;
66966;SDS011;53900;51.468;-2.586;2023-05-23T07:25:49;11.07;;;2.60;;
66966;SDS011;53900;51.468;-2.586;2023-05-23T07:28:14;16.02;;;3.03;;
66966;SDS011;53900;51.468;-2.586;2023-05-23T07:30:40;8.73;;;2.40;;
66966;SDS011;53900;51.468;-2.586;2023-05-23T07:33:05;13.07;;;2.90;;
66966;SDS011;53900;51.468;-2.586;2023-05-23T07:35:31;17.55;;;2.92;;
66966;SDS011;53900;51.468;-2.586;2023-05-23T07:37:56;13.02;;;2.97;;
66966;SDS011;53900;51.468;-2.586;2023-05-23T07:40:21;10.30;;;3.00;;
66966;SDS011;53900;51.468;-2.586;2023-05-23T07:42:46;14.27;;;2.90;;
66966;SDS011;53900;51.468;-2.586;2023-05-23T07:45:12;13.90;;;3.22;;
66966;SDS011;53900;51.468;-2.586;2023-05-23T07:47:37;13.00;;;2.70;;
66966;SDS011;53900;51.468;-2.586;2023-05-23T07:50:03;12.20;;;2.80;;
66966;SDS011;53900;51.468;-2.586;2023-05-23T07:52:28;8.02;;;2.30;;
66966;SDS011;53900;51.468;-2.586;2023-05-23T07:54:54;8.93;;;3.00;;
66966;SDS011;53900;51.468;-2.586;2023-05-23T07:57:20;13.13;;;2.40;;
66966;SDS011;53900;51.468;-2.586;2023-05-23T07:59:45;12.68;;;3.10;;
66966;SDS011;53900;51.468;-2.586;2023-05-23T08:02:10;10.43;;;2.75;;
66966;SDS011;53900;51.468;-2.586;2023-05-23T08:04:36;13.07;;;3.10;;
66966;SDS011;53900;51.468;-2.586;2023-05-23T08:07:01;11.82;;;2.60;;
66966;SDS011;53900;51.468;-2.586;2023-05-23T08:09:26;16.05;;;3.30;;
66966;SDS011;53900;51.468;-2.586;2023-05-23T08:11:51;24.10;;;3.50;;
66966;SDS011;53900;51.468;-2.586;2023-05-23T08:14:16;12.35;;;3.10;;
66966;SDS011;53900;51.468;-2.586;2023-05-23T08:16:42;15.57;;;3.05;;
66966;SDS011;53900;51.468;-2.586;2023-05-23T08:19:07;11.50;;;3.33;;
66966;SDS011;53900;51.468;-2.586;2023-05-23T08:21:33;18.20;;;3.15;;
66966;SDS011;53900;51.468;-2.586;2023-05-23T08:23:58;15.65;;;3.13;;
66966;SDS011;53900;51.468;-2.586;2023-05-23T08:26:23;14.18;;;3.40;;
66966;SDS011;53900;51.468;-2.586;2023-05-23T08:28:49;15.85;;;3.45;;
66966;SDS011;53900;51.468;-2.586;2023-05-23T08:31:14;13.18;;;2.95;;
66966;SDS011;53900;51.468;-2.586;2023-05-23T08:33:40;32.22;;;4.45;;
66966;SDS011;53900;51.468;-2.586;2023-05-23T08:36:05;12.30;;;3.30;;
66966;SDS011;53900;51.468;-2.586;2023-05-23T08:38:30;15.70;;;3.03;;
66966;SDS011;53900;51.468;-2.586;2023-05-23T08:40:55;15.25;;;3.08;;
66966;SDS011;53900;51.468;-2.586;2023-05-23T08:43:24;23.90;;;4.05;;
66966;SDS011;53900;51.468;-2.586;2023-05-23T08:45:49;12.38;;;2.70;;
66966;SDS011;53900;51.468;-2.586;2023-05-23T08:48:15;10.07;;;2.90;;
66966;SDS011;53900;51.468;-2.586;2023-05-23T08:50:44;9.20;;;2.97;;
66966;SDS011;53900;51.468;-2.586;2023-05-23T08:53:11;12.60;;;2.88;;
66966;SDS011;53900;51.468;-2.586;2023-05-23T08:55:44;9.57;;;3.13;;
66966;SDS011;53900;51.468;-2.586;2023-05-23T08:58:09;9.43;;;3.28;;
66966;SDS011;53900;51.468;-2.586;2023-05-23T09:00:34;13.88;;;2.75;;
66966;SDS011;53900;51.468;-2.586;2023-05-23T09:02:59;12.88;;;3.15;;
66966;SDS011;53900;51.468;-2.586;2023-05-23T09:05:25;12.20;;;3.03;;
66966;SDS011;53900;51.468;-2.586;2023-05-23T09:07:50;8.82;;;3.20;;
66966;SDS011;53900;51.468;-2.586;2023-05-23T09:10:16;9.93;;;3.13;;
66966;SDS011;53900;51.468;-2.586;2023-05-23T09:12:41;11.85;;;3.25;;
66966;SDS011;53900;51.468;-2.586;2023-05-23T09:15:08;12.73;;;3.28;;
66966;SDS011;53900;51.468;-2.586;2023-05-23T09:17:33;12.20;;;3.13;;
66966;SDS011;53900;51.468;-2.586;2023-05-23T09:19:59;12.15;;;3.28;;
66966;SDS011;53900;51.468;-2.586;2023-05-23T09:22:25;8.35;;;3.30;;
66966;SDS011;53900;51.468;-2.586;2023-05-23T09:24:50;11.43;;;3.20;;
66966;SDS011;53900;51.468;-2.586;2023-05-23T09:27:17;7.40;;;2.70;;
66966;SDS011;53900;51.468;-2.586;2023-05-23T09:29:42;7.30;;;2.47;;
66966;SDS011;53900;51.468;-2.586;2023-05-23T09:32:11;12.82;;;3.15;;
66966;SDS011;53900;51.468;-2.586;2023-05-23T09:34:39;8.80;;;2.75;;
66966;SDS011;53900;51.468;-2.586;2023-05-23T09:37:04;10.80;;;2.55;;
66966;SDS011;53900;51.468;-2.586;2023-05-23T09:39:30;10.23;;;2.42;;
66966;SDS011;53900;51.468;-2.586;2023-05-23T09:41:56;14.10;;;3.28;;
66966;SDS011;53900;51.468;-2.586;2023-05-23T09:44:22;12.80;;;2.97;;
66966;SDS011;53900;51.468;-2.586;2023-05-23T09:46:49;6.97;;;2.67;;
66966;SDS011;53900;51.468;-2.586;2023-05-23T09:49:16;13.05;;;3.05;;
66966;SDS011;53900;51.468;-2.586;2023-05-23T09:51:42;8.13;;;2.83;;
66966;SDS011;53900;51.468;-2.586;2023-05-23T09:54:07;8.82;;;2.92;;
66966;SDS011;53900;51.468;-2.586;2023-05-23T09:56:32;10.05;;;3.13;;
66966;SDS011;53900;51.468;-2.586;2023-05-23T09:59:00;9.25;;;2.90;;
66966;SDS011;53900;51.468;-2.586;2023-05-23T10:01:26;9.73;;;3.05;;
66966;SDS011;53900;51.468;-2.586;2023-05-23T10:03:53;9.88;;;3.08;;
66966;SDS011;53900;51.468;-2.586;2023-05-23T10:06:34;14.65;;;3.22;;
66966;SDS011;53900;51.468;-2.586;2023-05-23T10:09:03;8.82;;;2.88;;
66966;SDS011;53900;51.468;-2.586;2023-05-23T10:14:00;5.15;;;2.53;;
66966;SDS011;53900;51.468;-2.586;2023-05-23T10:16:27;10.48;;;3.10;;
66966;SDS011;53900;51.468;-2.586;2023-05-23T10:18:56;14.35;;;2.80;;
66966;SDS011;53900;51.468;-2.586;2023-05-23T10:21:32;8.45;;;2.95;;
66966;SDS011;53900;51.468;-2.586;2023-05-23T10:24:00;6.50;;;2.60;;
66966;SDS011;53900;51.468;-2.586;2023-05-23T10:26:26;9.10;;;2.70;;
66966;SDS011;53900;51.468;-2.586;2023-05-23T10:28:51;8.57;;;2.80;;
66966;SDS011;53900;51.468;-2.586;2023-05-23T10:31:16;9.23;;;3.13;;
66966;SDS011;53900;51.468;-2.586;2023-05-23T10:33:42;11.50;;;3.00;;
66966;SDS011;53900;51.468;-2.586;2023-05-23T10:36:11;8.18;;;3.13;;
66966;SDS011;53900;51.468;-2.586;2023-05-23T10:43:33;11.35;;;2.85;;
66966;SDS011;53900;51.468;-2.586;2023-05-23T10:46:00;7.60;;;2.92;;
66966;SDS011;53900;51.468;-2.586;2023-05-23T10:48:32;6.72;;;2.40;;
66966;SDS011;53900;51.468;-2.586;2023-05-23T10:51:08;9.80;;;2.55;;
66966;SDS011;53900;51.468;-2.586;2023-05-23T10:53:35;13.23;;;2.47;;
66966;SDS011;53900;51.468;-2.586;2023-05-23T10:56:01;8.32;;;2.60;;
66966;SDS011;53900;51.468;-2.586;2023-05-23T10:58:28;13.60;;;2.58;;
66966;SDS011;53900;51.468;-2.586;2023-05-23T11:00:55;8.60;;;2.38;;
66966;SDS011;53900;51.468;-2.586;2023-05-23T11:05:59;10.50;;;2.75;;
66966;SDS011;53900;51.468;-2.586;2023-05-23T11:08:25;10.43;;;2.97;;
66966;SDS011;53900;51.468;-2.586;2023-05-23T11:10:57;8.45;;;2.78;;
66966;SDS011;53900;51.468;-2.586;2023-05-23T11:13:23;10.52;;;2.70;;
66966;SDS011;53900;51.468;-2.586;2023-05-23T11:15:48;10.15;;;2.70;;
66966;SDS011;53900;51.468;-2.586;2023-05-23T11:18:25;9.15;;;2.80;;
66966;SDS011;53900;51.468;-2.586;2023-05-23T11:20:51;13.80;;;2.45;;
66966;SDS011;53900;51.468;-2.586;2023-05-23T11:23:17;6.28;;;2.42;;
66966;SDS011;53900;51.468;-2.586;2023-05-23T11:25:43;10.50;;;2.58;;
66966;SDS011;53900;51.468;-2.586;2023-05-23T11:28:09;9.25;;;2.90;;
66966;SDS011;53900;51.468;-2.586;2023-05-23T11:30:35;10.95;;;2.80;;
66966;SDS011;53900;51.468;-2.586;2023-05-23T11:33:10;9.00;;;3.10;;
66966;SDS011;53900;51.468;-2.586;2023-05-23T11:35:40;10.70;;;3.30;;
66966;SDS011;53900;51.468;-2.586;2023-05-23T11:38:06;10.68;;;2.85;;
66966;SDS011;53900;51.468;-2.586;2023-05-23T11:42:56;7.57;;;3.20;;
66966;SDS011;53900;51.468;-2.586;2023-05-23T11:45:22;8.70;;;2.78;;
66966;SDS011;53900;51.468;-2.586;2023-05-23T11:47:47;8.82;;;3.05;;
66966;SDS011;53900;51.468;-2.586;2023-05-23T11:50:13;10.15;;;3.00;;
66966;SDS011;53900;51.468;-2.586;2023-05-23T11:52:39;6.50;;;3.15;;
66966;SDS011;53900;51.468;-2.586;2023-05-23T11:55:05;9.98;;;3.33;;
66966;SDS011;53900;51.468;-2.586;2023-05-23T11:57:31;12.07;;;2.90;;
66966;SDS011;53900;51.468;-2.586;2023-05-23T11:59:56;12.20;;;2.60;;
66966;SDS011;53900;51.468;-2.586;2023-05-23T12:02:21;7.75;;;2.58;;
66966;SDS011;53900;51.468;-2.586;2023-05-23T12:04:49;6.90;;;3.17;;
66966;SDS011;53900;51.468;-2.586;2023-05-23T12:07:17;8.20;;;2.92;;
66966;SDS011;53900;51.468;-2.586;2023-05-23T12:09:43;10.35;;;2.83;;
66966;SDS011;53900;51.468;-2.586;2023-05-23T12:12:08;9.23;;;2.55;;
66966;SDS011;53900;51.468;-2.586;2023-05-23T12:14:33;7.43;;;2.92;;
66966;SDS011;53900;51.468;-2.586;2023-05-23T12:16:58;5.88;;;2.65;;
66966;SDS011;53900;51.468;-2.586;2023-05-23T12:19:24;8.55;;;3.33;;
66966;SDS011;53900;51.468;-2.586;2023-05-23T12:21:49;11.52;;;2.95;;
66966;SDS011;53900;51.468;-2.586;2023-05-23T12:24:18;7.88;;;2.78;;
66966;SDS011;53900;51.468;-2.586;2023-05-23T12:26:53;6.65;;;2.25;;
66966;SDS011;53900;51.468;-2.586;2023-05-23T12:29:19;7.15;;;2.30;;
66966;SDS011;53900;51.468;-2.586;2023-05-23T12:31:49;7.55;;;2.58;;
66966;SDS011;53900;51.468;-2.586;2023-05-23T12:34:15;9.98;;;2.10;;
66966;SDS011;53900;51.468;-2.586;2023-05-23T12:36:40;7.68;;;2.28;;
66966;SDS011;53900;51.468;-2.586;2023-05-23T12:39:07;6.55;;;2.22;;
66966;SDS011;53900;51.468;-2.586;2023-05-23T12:41:33;16.60;;;3.03;;
66966;SDS011;53900;51.468;-2.586;2023-05-23T12:43:58;6.25;;;2.00;;
66966;SDS011;53900;51.468;-2.586;2023-05-23T12:46:25;8.43;;;2.10;;
66966;SDS011;53900;51.468;-2.586;2023-05-23T12:48:50;4.00;;;1.50;;
66966;SDS011;53900;51.468;-2.586;2023-05-23T12:51:15;4.65;;;1.73;;
66966;SDS011;53900;51.468;-2.586;2023-05-23T12:53:41;8.38;;;1.77;;
66966;SDS011;53900;51.468;-2.586;2023-05-23T12:56:06;6.05;;;1.38;;
66966;SDS011;53900;51.468;-2.586;2023-05-23T12:58:31;5.68;;;1.95;;
66966;SDS011;53900;51.468;-2.586;2023-05-23T13:00:58;6.78;;;2.38;;
66966;SDS011;53900;51.468;-2.586;2023-05-23T13:03:23;5.13;;;2.05;;
66966;SDS011;53900;51.468;-2.586;2023-05-23T13:05:48;8.18;;;2.42;;
66966;SDS011;53900;51.468;-2.586;2023-05-23T13:08:14;4.10;;;1.95;;
66966;SDS011;53900;51.468;-2.586;2023-05-23T13:10:39;7.80;;;2.45;;
66966;SDS011;53900;51.468;-2.586;2023-05-23T13:13:04;8.83;;;2.63;;
66966;SDS011;53900;51.468;-2.586;2023-05-23T13:15:29;6.65;;;2.15;;
66966;SDS011;53900;51.468;-2.586;2023-05-23T13:17:55;9.10;;;2.33;;
66966;SDS011;53900;51.468;-2.586;2023-05-23T13:20:20;7.80;;;2.33;;
66966;SDS011;53900;51.468;-2.586;2023-05-23T13:22:46;6.75;;;2.25;;
66966;SDS011;53900;51.468;-2.586;2023-05-23T13:25:11;3.90;;;2.10;;
66966;SDS011;53900;51.468;-2.586;2023-05-23T13:27:36;9.32;;;2.50;;
66966;SDS011;53900;51.468;-2.586;2023-05-23T13:30:01;11.65;;;2.50;;
66966;SDS011;53900;51.468;-2.586;2023-05-23T13:32:27;7.72;;;2.45;;
66966;SDS011;53900;51.468;-2.586;2023-05-23T13:34:52;9.55;;;2.53;;
66966;SDS011;53900;51.468;-2.586;2023-05-23T13:37:17;7.13;;;2.25;;
66966;SDS011;53900;51.468;-2.586;2023-05-23T13:39:42;6.88;;;2.53;;
66966;SDS011;53900;51.468;-2.586;2023-05-23T13:42:07;8.00;;;2.70;;
66966;SDS011;53900;51.468;-2.586;2023-05-23T13:44:33;8.32;;;2.88;;
66966;SDS011;53900;51.468;-2.586;2023-05-23T13:47:08;6.13;;;2.92;;
66966;SDS011;53900;51.468;-2.586;2023-05-23T13:49:33;10.25;;;3.22;;
66966;SDS011;53900;51.468;-2.586;2023-05-23T13:51:59;8.65;;;3.00;;
66966;SDS011;53900;51.468;-2.586;2023-05-23T13:54:24;6.80;;;2.93;;
66966;SDS011;53900;51.468;-2.586;2023-05-23T13:56:49;7.95;;;2.78;;
66966;SDS011;53900;51.468;-2.586;2023-05-23T13:59:14;7.97;;;2.87;;
66966;SDS011;53900;51.468;-2.586;2023-05-23T14:01:44;6.13;;;2.13;;
66966;SDS011;53900;51.468;-2.586;2023-05-23T14:04:10;6.40;;;2.40;;
66966;SDS011;53900;51.468;-2.586;2023-05-23T14:06:35;4.30;;;2.22;;
66966;SDS011;53900;51.468;-2.586;2023-05-23T14:09:00;3.78;;;1.77;;
66966;SDS011;53900;51.468;-2.586;2023-05-23T14:11:26;6.93;;;2.45;;
66966;SDS011;53900;51.468;-2.586;2023-05-23T14:13:52;10.35;;;2.42;;
66966;SDS011;53900;51.468;-2.586;2023-05-23T14:16:17;8.50;;;2.60;;
66966;SDS011;53900;51.468;-2.586;2023-05-23T14:18:42;7.43;;;2.42;;
66966;SDS011;53900;51.468;-2.586;2023-05-23T14:21:09;8.65;;;2.60;;
66966;SDS011;53900;51.468;-2.586;2023-05-23T14:23:34;5.68;;;2.67;;
66966;SDS011;53900;51.468;-2.586;2023-05-23T14:25:59;12.40;;;3.22;;
66966;SDS011;53900;51.468;-2.586;2023-05-23T14:28:24;8.68;;;2.40;;
66966;SDS011;53900;51.468;-2.586;2023-05-23T14:30:50;8.52;;;2.75;;
66966;SDS011;53900;51.468;-2.586;2023-05-23T14:33:15;9.48;;;2.60;;
66966;SDS011;53900;51.468;-2.586;2023-05-23T14:35:40;7.55;;;2.60;;
66966;SDS011;53900;51.468;-2.586;2023-05-23T14:38:06;8.50;;;2.47;;
66966;SDS011;53900;51.468;-2.586;2023-05-23T14:40:31;10.60;;;3.05;;
66966;SDS011;53900;51.468;-2.586;2023-05-23T14:42:57;6.90;;;2.30;;
66966;SDS011;53900;51.468;-2.586;2023-05-23T14:45:22;4.50;;;2.10;;
66966;SDS011;53900;51.468;-2.586;2023-05-23T14:47:47;7.63;;;2.30;;
66966;SDS011;53900;51.468;-2.586;2023-05-23T14:50:12;6.45;;;2.13;;
66966;SDS011;53900;51.468;-2.586;2023-05-23T14:52:38;10.55;;;2.03;;
66966;SDS011;53900;51.468;-2.586;2023-05-23T14:55:03;5.88;;;2.50;;
66966;SDS011;53900;51.468;-2.586;2023-05-23T14:57:28;6.65;;;1.98;;
66966;SDS011;53900;51.468;-2.586;2023-05-23T14:59:53;4.78;;;2.22;;
66966;SDS011;53900;51.468;-2.586;2023-05-23T15:02:19;6.50;;;2.03;;
66966;SDS011;53900;51.468;-2.586;2023-05-23T15:04:45;4.53;;;1.80;;
66966;SDS011;53900;51.468;-2.586;2023-05-23T15:07:10;6.10;;;1.90;;
66966;SDS011;53900;51.468;-2.586;2023-05-23T15:09:37;9.25;;;2.00;;
66966;SDS011;53900;51.468;-2.586;2023-05-23T15:12:02;14.52;;;3.00;;
66966;SDS011;53900;51.468;-2.586;2023-05-23T15:14:29;6.65;;;2.03;;
66966;SDS011;53900;51.468;-2.586;2023-05-23T15:16:56;6.90;;;2.10;;
66966;SDS011;53900;51.468;-2.586;2023-05-23T15:19:21;6.88;;;1.95;;
66966;SDS011;53900;51.468;-2.586;2023-05-23T15:21:46;3.50;;;1.70;;
66966;SDS011;53900;51.468;-2.586;2023-05-23T15:24:11;8.17;;;2.13;;
66966;SDS011;53900;51.468;-2.586;2023-05-23T15:26:36;6.13;;;1.90;;
66966;SDS011;53900;51.468;-2.586;2023-05-23T15:29:02;3.47;;;2.10;;
66966;SDS011;53900;51.468;-2.586;2023-05-23T15:31:27;6.35;;;1.90;;
66966;SDS011;53900;51.468;-2.586;2023-05-23T15:33:52;4.43;;;2.08;;
66966;SDS011;53900;51.468;-2.586;2023-05-23T15:36:17;7.37;;;2.03;;
66966;SDS011;53900;51.468;-2.586;2023-05-23T15:38:42;4.80;;;1.67;;
66966;SDS011;53900;51.468;-2.586;2023-05-23T15:41:08;2.97;;;1.67;;
66966;SDS011;53900;51.468;-2.586;2023-05-23T15:43:34;5.40;;;2.10;;
66966;SDS011;53900;51.468;-2.586;2023-05-23T15:45:59;3.55;;;1.88;;
66966;SDS011;53900;51.468;-2.586;2023-05-23T15:48:25;6.88;;;2.30;;
66966;SDS011;53900;51.468;-2.586;2023-05-23T15:50:50;5.77;;;2.40;;
66966;SDS011;53900;51.468;-2.586;2023-05-23T15:53:15;7.53;;;2.37;;
66966;SDS011;53900;51.468;-2.586;2023-05-23T15:55:40;7.63;;;3.10;;
66966;SDS011;53900;51.468;-2.586;2023-05-23T15:58:06;7.00;;;2.38;;
66966;SDS011;53900;51.468;-2.586;2023-05-23T16:00:31;7.05;;;2.53;;
66966;SDS011;53900;51.468;-2.586;2023-05-23T16:02:56;9.05;;;2.60;;
66966;SDS011;53900;51.468;-2.586;2023-05-23T16:05:21;9.07;;;2.40;;
66966;SDS011;53900;51.468;-2.586;2023-05-23T16:07:47;5.38;;;2.33;;
66966;SDS011;53900;51.468;-2.586;2023-05-23T16:10:12;4.83;;;2.37;;
66966;SDS011;53900;51.468;-2.586;2023-05-23T16:12:38;6.38;;;2.13;;
66966;SDS011;53900;51.468;-2.586;2023-05-23T16:15:03;5.70;;;2.50;;
66966;SDS011;53900;51.468;-2.586;2023-05-23T16:17:28;8.55;;;2.50;;
66966;SDS011;53900;51.468;-2.586;2023-05-23T16:19:54;6.07;;;2.40;;
66966;SDS011;53900;51.468;-2.586;2023-05-23T16:22:19;4.85;;;2.30;;
66966;SDS011;53900;51.468;-2.586;2023-05-23T16:24:44;7.87;;;2.40;;
66966;SDS011;53900;51.468;-2.586;2023-05-23T16:27:09;10.68;;;2.47;;
66966;SDS011;53900;51.468;-2.586;2023-05-23T16:29:35;9.57;;;2.45;;
66966;SDS011;53900;51.468;-2.586;2023-05-23T16:32:00;8.20;;;2.38;;
66966;SDS011;53900;51.468;-2.586;2023-05-23T16:34:25;5.80;;;2.58;;
66966;SDS011;53900;51.468;-2.586;2023-05-23T16:36:51;8.10;;;2.38;;
66966;SDS011;53900;51.468;-2.586;2023-05-23T16:39:16;7.97;;;2.60;;
66966;SDS011;53900;51.468;-2.586;2023-05-23T16:41:41;5.75;;;2.28;;
66966;SDS011;53900;51.468;-2.586;2023-05-23T16:44:06;6.93;;;2.47;;
66966;SDS011;53900;51.468;-2.586;2023-05-23T16:46:31;8.13;;;2.37;;
66966;SDS011;53900;51.468;-2.586;2023-05-23T16:48:57;6.33;;;2.30;;
66966;SDS011;53900;51.468;-2.586;2023-05-23T16:51:22;5.20;;;2.40;;
66966;SDS011;53900;51.468;-2.586;2023-05-23T16:53:47;9.57;;;2.60;;
66966;SDS011;53900;51.468;-2.586;2023-05-23T16:56:13;9.55;;;2.40;;
66966;SDS011;53900;51.468;-2.586;2023-05-23T16:58:38;7.88;;;2.55;;